Time;durP1;ratioP1;P1;durP2;ratioP2;P2;SDS_P1;SDS_P2;PMS_P1;PMS_P2;Temp;Humidity;BMP_temperature;BMP_pressure;BME280_temperature;BME280_humidity;BME280_pressure;Samples;Min_cycle;Max_cycle;Signal;HPM_P1;HPM_P2
2022/04/27 00:01:13;;;;;;;;;;;13.70;99.90;;;;;;5003916;28;19995;-73
2022/04/27 00:03:38;;;;;;;;;;;13.70;99.90;;;;;;5009115;28;19940;-73
2022/04/27 00:06:04;;;;;;;;;;;13.80;99.90;;;;;;5011664;28;20333;-74
2022/04/27 00:08:30;;;;;;;;;;;13.80;99.90;;;;;;5005315;28;19905;-74
2022/04/27 00:10:55;;;;;;;;;;;13.80;99.90;;;;;;5004468;28;19960;-74
2022/04/27 00:13:21;;;;;;;;;;;13.80;99.90;;;;;;5004542;28;19917;-74
2022/04/27 00:15:46;;;;;;;;;;;13.80;99.90;;;;;;5003934;28;20008;-75
2022/04/27 00:18:12;;;;;;;;;;;13.80;99.90;;;;;;5004523;28;20369;-74
2022/04/27 00:20:37;;;;;;;;;;;13.80;99.90;;;;;;5003279;28;19913;-76
2022/04/27 00:23:03;;;;;;;;;;;13.90;99.90;;;;;;5003598;28;20400;-74
2022/04/27 00:25:29;;;;;;;;;;;13.90;99.90;;;;;;5002416;28;19917;-75
2022/04/27 00:27:54;;;;;;;;;;;13.80;99.90;;;;;;5007571;28;19913;-74
2022/04/27 00:30:20;;;;;;;;;;;13.70;99.90;;;;;;5011968;28;20032;-74
2022/04/27 00:32:45;;;;;;;;;;;13.80;99.90;;;;;;5010998;28;19913;-74
2022/04/27 00:35:11;;;;;;;;;;;13.70;99.90;;;;;;5012574;28;20161;-73
2022/04/27 00:37:37;;;;;;;;;;;13.70;99.90;;;;;;5010522;28;20031;-73
2022/04/27 00:40:03;;;;;;;;;;;13.70;99.90;;;;;;5003380;28;20016;-73
2022/04/27 00:42:29;;;;;;;;;;;13.80;99.90;;;;;;5003143;28;19909;-74
2022/04/27 00:44:54;;;;;;;;;;;13.80;99.90;;;;;;5004817;28;19917;-74
2022/04/27 00:47:20;;;;;;;;;;;13.80;99.90;;;;;;5008488;28;19917;-74
2022/04/27 00:49:50;;;;;;;;;;;13.80;99.90;;;;;;5008584;28;20342;-73
2022/04/27 00:52:16;;;;;;;;;;;13.70;99.90;;;;;;5006830;28;20386;-72
2022/04/27 00:54:43;;;;;;;;;;;13.70;99.90;;;;;;5007299;28;19910;-72
2022/04/27 00:57:09;;;;;;;;;;;13.70;99.90;;;;;;5009040;28;20397;-73
2022/04/27 00:59:35;;;;;;;;;;;13.70;99.90;;;;;;5002803;28;20068;-73
2022/04/27 01:02:01;;;;;;;;;;;13.70;99.90;;;;;;5003374;28;20012;-76
2022/04/27 01:04:27;;;;;;;;;;;13.70;99.90;;;;;;5002863;28;20008;-74
2022/04/27 01:06:53;;;;;;;;;;;13.80;99.90;;;;;;5004065;28;19917;-74
2022/04/27 01:09:18;;;;;;;;;;;13.80;99.90;;;;;;5003567;28;20008;-73
2022/04/27 01:11:44;;;;;;;;;;;13.80;99.90;;;;;;5007269;28;20351;-73
2022/04/27 01:14:10;;;;;;;;;;;13.80;99.90;;;;;;5010142;28;19905;-73
2022/04/27 01:16:36;;;;;;;;;;;13.90;99.90;;;;;;5007688;28;20056;-76
2022/04/27 01:19:02;;;;;;;;;;;14.10;99.90;;;;;;5007153;28;19909;-74
2022/04/27 01:21:27;;;;;;;;;;;14.00;99.90;;;;;;5010242;28;20254;-75
2022/04/27 01:23:53;;;;;;;;;;;14.00;99.90;;;;;;5009065;28;19909;-74
2022/04/27 01:26:19;;;;;;;;;;;14.00;99.90;;;;;;5009906;28;19913;-74
2022/04/27 01:28:45;;;;;;;;;;;14.00;99.90;;;;;;5005284;28;19909;-73
2022/04/27 01:31:11;;;;;;;;;;;13.90;99.90;;;;;;5007840;28;19906;-72
2022/04/27 01:33:37;;;;;;;;;;;13.90;99.90;;;;;;5011057;28;19967;-73
2022/04/27 01:36:03;;;;;;;;;;;13.90;99.90;;;;;;5007108;28;19948;-73
2022/04/27 01:38:39;;;;;;;;;;;13.90;99.90;;;;;;5007274;28;19910;-74
2022/04/27 01:41:05;;;;;;;;;;;13.90;99.90;;;;;;5007440;28;20349;-76
2022/04/27 01:43:30;;;;;;;;;;;13.90;99.90;;;;;;5010398;28;19916;-72
2022/04/27 01:45:56;;;;;;;;;;;13.80;99.90;;;;;;5009885;28;19909;-73
2022/04/27 01:48:22;;;;;;;;;;;13.80;99.90;;;;;;5006154;28;19909;-73
2022/04/27 01:50:48;;;;;;;;;;;13.80;99.90;;;;;;5009428;28;19932;-73
2022/04/27 01:55:57;;;;;;;;;;;13.70;99.90;;;;;;5009132;28;19921;-73
2022/04/27 01:58:24;;;;;;;;;;;13.80;99.90;;;;;;5003390;28;19913;-72
2022/04/27 02:00:50;;;;;;;;;;;13.90;99.90;;;;;;5008833;28;19909;-73
2022/04/27 02:03:18;;;;;;;;;;;13.80;99.90;;;;;;5006017;28;21822;-73
2022/04/27 02:05:44;;;;;;;;;;;13.80;99.90;;;;;;5003890;28;19909;-73
2022/04/27 02:08:09;;;;;;;;;;;13.80;99.90;;;;;;5006885;28;20349;-74
2022/04/27 02:10:35;;;;;;;;;;;13.70;99.90;;;;;;5010003;28;19909;-72
2022/04/27 02:13:02;;;;;;;;;;;13.60;99.90;;;;;;5008612;28;19989;-73
2022/04/27 02:15:27;;;;;;;;;;;13.50;99.90;;;;;;5009048;28;19913;-72
2022/04/27 02:17:53;;;;;;;;;;;13.50;99.90;;;;;;5008800;28;19963;-74
2022/04/27 02:20:19;;;;;;;;;;;13.40;99.90;;;;;;5007032;28;19920;-73
2022/04/27 02:22:44;;;;;;;;;;;13.40;99.90;;;;;;5012543;28;19913;-72
2022/04/27 02:25:10;;;;;;;;;;;13.40;99.90;;;;;;5013135;28;19917;-72
2022/04/27 02:27:35;;;;;;;;;;;13.40;99.90;;;;;;5010263;28;20107;-72
2022/04/27 02:30:02;;;;;;;;;;;13.40;99.90;;;;;;5009963;28;19988;-73
2022/04/27 02:32:27;;;;;;;;;;;13.40;99.90;;;;;;5013885;28;19920;-73
2022/04/27 02:34:53;;;;;;;;;;;13.30;99.90;;;;;;5009589;28;19909;-73
2022/04/27 02:37:18;;;;;;;;;;;13.30;99.90;;;;;;5012174;28;20238;-73
2022/04/27 02:39:44;;;;;;;;;;;13.30;99.90;;;;;;5011377;28;19914;-74
2022/04/27 02:42:10;;;;;;;;;;;13.30;99.90;;;;;;5014014;28;19909;-73
2022/04/27 02:44:36;;;;;;;;;;;13.30;99.90;;;;;;5011899;28;19913;-76
2022/04/27 02:47:01;;;;;;;;;;;13.20;99.90;;;;;;5012759;28;19917;-72
2022/04/27 02:52:11;;;;;;;;;;;13.10;99.90;;;;;;5013967;28;19916;-73
2022/04/27 02:54:37;;;;;;;;;;;13.20;99.90;;;;;;5014184;28;19906;-73
2022/04/27 02:57:02;;;;;;;;;;;13.20;99.90;;;;;;5010617;28;20377;-73
2022/04/27 02:59:28;;;;;;;;;;;13.30;99.90;;;;;;5005507;28;19909;-72
2022/04/27 03:01:53;;;;;;;;;;;13.30;99.90;;;;;;5009374;28;20100;-72
2022/04/27 03:04:19;;;;;;;;;;;13.30;99.90;;;;;;5012868;28;20350;-74
2022/04/27 03:06:45;;;;;;;;;;;13.30;99.90;;;;;;5013542;28;20350;-76
2022/04/27 03:09:10;;;;;;;;;;;13.30;99.90;;;;;;5009218;28;19976;-75
2022/04/27 03:11:36;;;;;;;;;;;13.30;99.90;;;;;;5010216;28;20525;-74
2022/04/27 03:14:01;;;;;;;;;;;13.30;99.90;;;;;;5012344;28;19909;-74
2022/04/27 03:16:27;;;;;;;;;;;13.30;99.90;;;;;;5013216;28;19960;-73
2022/04/27 03:18:52;;;;;;;;;;;13.30;99.90;;;;;;5011531;28;19913;-74
2022/04/27 03:21:18;;;;;;;;;;;13.30;99.90;;;;;;5013680;28;19905;-75
2022/04/27 03:23:44;;;;;;;;;;;13.30;99.90;;;;;;5011911;28;19909;-76
2022/04/27 03:26:10;;;;;;;;;;;13.40;99.90;;;;;;5012584;28;19918;-74
2022/04/27 03:28:36;;;;;;;;;;;13.40;99.90;;;;;;5011639;28;19915;-74
2022/04/27 03:31:05;;;;;;;;;;;13.50;99.90;;;;;;5008475;28;19936;-75
2022/04/27 03:33:31;;;;;;;;;;;13.50;99.90;;;;;;5009075;28;19936;-74
2022/04/27 03:35:56;;;;;;;;;;;13.50;99.90;;;;;;5010382;28;20377;-77
2022/04/27 03:38:29;;;;;;;;;;;13.50;99.90;;;;;;5008479;28;19921;-75
2022/04/27 03:40:54;;;;;;;;;;;13.50;99.90;;;;;;5007507;28;19968;-72
2022/04/27 03:43:20;;;;;;;;;;;13.40;99.90;;;;;;5006065;28;20629;-72
2022/04/27 03:45:45;;;;;;;;;;;13.40;99.90;;;;;;5010882;28;19905;-76
2022/04/27 03:48:11;;;;;;;;;;;13.50;99.90;;;;;;5010717;28;19913;-75
2022/04/27 03:50:37;;;;;;;;;;;13.50;99.90;;;;;;5010320;28;20341;-75
2022/04/27 03:53:03;;;;;;;;;;;13.60;99.90;;;;;;5010643;28;20393;-73
2022/04/27 03:55:29;;;;;;;;;;;13.50;99.90;;;;;;5012921;28;19983;-73
2022/04/27 03:57:55;;;;;;;;;;;13.50;99.90;;;;;;5008154;28;19917;-73
2022/04/27 04:00:20;;;;;;;;;;;13.50;99.90;;;;;;5005196;28;19923;-73
2022/04/27 04:02:46;;;;;;;;;;;13.50;99.90;;;;;;5009987;28;20369;-73
2022/04/27 04:05:12;;;;;;;;;;;13.50;99.90;;;;;;5009684;28;19920;-74
2022/04/27 04:07:39;;;;;;;;;;;13.50;99.90;;;;;;5011818;28;19957;-73
2022/04/27 04:10:05;;;;;;;;;;;13.40;99.90;;;;;;5010686;28;19920;-73
2022/04/27 04:12:31;;;;;;;;;;;13.50;99.90;;;;;;5005955;28;19955;-73
2022/04/27 04:14:57;;;;;;;;;;;13.40;99.90;;;;;;5011111;28;19956;-74
2022/04/27 04:17:22;;;;;;;;;;;13.50;99.90;;;;;;5011560;28;19914;-74
2022/04/27 04:19:48;;;;;;;;;;;13.50;99.90;;;;;;5012038;28;19913;-73
2022/04/27 04:22:14;;;;;;;;;;;13.50;99.90;;;;;;5012195;28;19913;-73
2022/04/27 04:28:29;;;;;;;;;;;13.40;99.90;;;;;;5010926;28;19909;-73
2022/04/27 04:30:10;;;;;;;;;;;13.30;99.90;;;;;;5010846;28;19968;-74
2022/04/27 04:32:40;;;;;;;;;;;13.10;99.90;;;;;;5012395;28;20338;-74
2022/04/27 04:35:06;;;;;;;;;;;13.00;99.90;;;;;;5010639;28;19919;-73
2022/04/27 04:37:32;;;;;;;;;;;13.10;99.90;;;;;;5007524;28;19972;-73
2022/04/27 04:39:57;;;;;;;;;;;13.00;99.90;;;;;;5004317;28;19913;-72
2022/04/27 04:42:23;;;;;;;;;;;12.90;99.90;;;;;;5011347;28;20000;-76
2022/04/27 04:44:48;;;;;;;;;;;12.90;99.90;;;;;;5008713;28;19923;-72
2022/04/27 04:47:14;;;;;;;;;;;12.90;99.90;;;;;;5011041;28;19913;-73
2022/04/27 04:49:40;;;;;;;;;;;12.90;99.90;;;;;;5009294;28;19916;-72
2022/04/27 04:52:07;;;;;;;;;;;12.90;99.90;;;;;;5010974;28;19916;-72
2022/04/27 04:54:34;;;;;;;;;;;12.90;99.90;;;;;;5010484;28;20366;-73
2022/04/27 04:57:00;;;;;;;;;;;13.00;99.90;;;;;;5010187;28;20388;-73
2022/04/27 04:59:25;;;;;;;;;;;13.00;99.90;;;;;;5005804;28;19944;-73
2022/04/27 05:01:51;;;;;;;;;;;13.00;99.90;;;;;;5009762;28;20020;-73
2022/04/27 05:04:17;;;;;;;;;;;13.00;99.90;;;;;;5006306;28;20341;-79
2022/04/27 05:06:44;;;;;;;;;;;13.00;99.90;;;;;;5004798;28;19936;-75
2022/04/27 05:09:10;;;;;;;;;;;13.00;99.90;;;;;;5004066;28;20006;-74
2022/04/27 05:11:35;;;;;;;;;;;12.90;99.90;;;;;;5004544;28;20135;-77
2022/04/27 05:14:01;;;;;;;;;;;12.90;99.90;;;;;;5003862;28;19949;-73
2022/04/27 05:16:27;;;;;;;;;;;12.90;99.90;;;;;;5003836;28;19917;-78
2022/04/27 05:18:53;;;;;;;;;;;12.90;99.90;;;;;;5002842;28;19917;-73
2022/04/27 05:21:18;;;;;;;;;;;12.90;99.90;;;;;;5004198;28;20258;-76
2022/04/27 05:23:44;;;;;;;;;;;12.90;99.90;;;;;;5004607;28;19913;-76
2022/04/27 05:26:11;;;;;;;;;;;12.90;99.90;;;;;;5003928;28;19909;-73
2022/04/27 05:34:05;;;;;;;;;;;12.90;99.90;;;;;;5003436;28;19919;-73
2022/04/27 05:36:31;;;;;;;;;;;13.00;99.90;;;;;;5007676;28;19913;-75
2022/04/27 05:38:56;;;;;;;;;;;13.00;99.90;;;;;;5006354;28;19993;-78
2022/04/27 05:41:22;;;;;;;;;;;13.00;99.90;;;;;;5006455;28;19906;-74
2022/04/27 05:43:48;;;;;;;;;;;13.00;99.90;;;;;;5003896;28;19920;-72
2022/04/27 05:46:13;;;;;;;;;;;13.10;99.90;;;;;;5008717;28;19917;-74
2022/04/27 05:48:39;;;;;;;;;;;13.10;99.90;;;;;;5006132;28;19909;-75
2022/04/27 05:51:05;;;;;;;;;;;13.10;99.90;;;;;;5003127;28;19921;-73
2022/04/27 05:53:31;;;;;;;;;;;13.10;99.90;;;;;;5005583;28;19957;-73
2022/04/27 05:55:56;;;;;;;;;;;13.10;99.90;;;;;;5003447;28;19959;-74
2022/04/27 05:58:22;;;;;;;;;;;13.10;99.90;;;;;;5004291;28;19917;-73
2022/04/27 06:00:49;;;;;;;;;;;13.10;99.90;;;;;;5003515;28;20266;-77
2022/04/27 06:03:15;;;;;;;;;;;13.20;99.90;;;;;;5000787;28;19921;-75
2022/04/27 06:05:40;;;;;;;;;;;13.30;99.90;;;;;;5004493;28;20564;-75
2022/04/27 06:08:06;;;;;;;;;;;13.30;99.90;;;;;;5003123;28;19909;-75
2022/04/27 06:10:32;;;;;;;;;;;13.20;99.90;;;;;;5005068;28;19910;-78
2022/04/27 06:12:58;;;;;;;;;;;13.30;99.90;;;;;;5005801;28;19916;-73
2022/04/27 06:15:23;;;;;;;;;;;13.30;99.90;;;;;;5005571;28;19916;-73
2022/04/27 06:17:50;;;;;;;;;;;13.30;99.90;;;;;;5007196;28;19961;-74
2022/04/27 06:20:15;;;;;;;;;;;13.30;99.90;;;;;;5005801;28;19953;-73
2022/04/27 06:22:41;;;;;;;;;;;13.30;99.90;;;;;;5011076;28;19906;-76
2022/04/27 06:25:07;;;;;;;;;;;13.30;99.90;;;;;;5002610;28;20047;-74
2022/04/27 06:27:33;;;;;;;;;;;13.30;99.90;;;;;;5008535;28;20266;-73
2022/04/27 06:29:58;;;;;;;;;;;13.20;99.90;;;;;;5008663;28;19921;-72
2022/04/27 06:32:24;;;;;;;;;;;13.10;99.90;;;;;;5010685;28;19917;-73
2022/04/27 06:34:50;;;;;;;;;;;13.10;99.90;;;;;;4992516;28;19924;-74
2022/04/27 06:37:15;;;;;;;;;;;13.10;99.90;;;;;;5009749;28;19914;-76
2022/04/27 06:39:43;;;;;;;;;;;13.10;99.90;;;;;;5010767;28;19909;-75
2022/04/27 06:42:08;;;;;;;;;;;13.10;99.90;;;;;;5010989;28;19964;-73
2022/04/27 06:44:34;;;;;;;;;;;13.20;99.90;;;;;;5010859;28;19913;-76
2022/04/27 06:47:00;;;;;;;;;;;13.20;99.90;;;;;;5010969;28;19913;-75
2022/04/27 06:49:26;;;;;;;;;;;13.10;99.90;;;;;;5009196;28;19909;-74
2022/04/27 06:51:51;;;;;;;;;;;13.10;99.90;;;;;;5009830;28;19905;-73
2022/04/27 06:54:17;;;;;;;;;;;13.10;99.90;;;;;;5009068;28;20377;-74
2022/04/27 06:56:42;;;;;;;;;;;13.20;99.90;;;;;;5009087;28;19909;-76
2022/04/27 06:59:08;;;;;;;;;;;13.30;99.90;;;;;;5011096;28;19940;-74
2022/04/27 07:01:34;;;;;;;;;;;13.40;99.90;;;;;;5010663;28;20393;-73
2022/04/27 07:04:06;;;;;;;;;;;13.40;99.90;;;;;;5010859;28;19992;-73
2022/04/27 07:06:32;;;;;;;;;;;13.40;99.90;;;;;;5026576;28;19976;-75
2022/04/27 07:08:58;;;;;;;;;;;13.60;99.90;;;;;;5031741;28;20418;-74
2022/04/27 07:11:23;;;;;;;;;;;13.80;99.90;;;;;;5013029;28;20000;-73
2022/04/27 07:13:49;;;;;;;;;;;13.80;99.90;;;;;;5012280;28;19913;-74
2022/04/27 07:16:14;;;;;;;;;;;14.00;99.90;;;;;;5014762;28;19913;-74
2022/04/27 07:18:40;;;;;;;;;;;14.00;99.90;;;;;;5012508;28;19925;-74
2022/04/27 07:21:08;;;;;;;;;;;14.00;99.90;;;;;;5013034;28;19960;-76
2022/04/27 07:23:33;;;;;;;;;;;14.00;99.90;;;;;;5014829;28;19906;-73
2022/04/27 07:25:59;;;;;;;;;;;14.00;99.90;;;;;;5012802;28;19996;-73
2022/04/27 07:28:25;;;;;;;;;;;14.10;99.90;;;;;;5014138;28;19979;-75
2022/04/27 07:30:50;;;;;;;;;;;14.10;99.90;;;;;;5014153;28;19984;-76
2022/04/27 07:33:16;;;;;;;;;;;14.10;99.90;;;;;;5014716;28;19913;-73
2022/04/27 07:35:42;;;;;;;;;;;14.30;99.90;;;;;;5010361;28;19910;-75
2022/04/27 07:38:07;;;;;;;;;;;14.40;99.90;;;;;;5017853;28;19916;-76
2022/04/27 07:40:33;;;;;;;;;;;14.50;99.90;;;;;;5025381;28;19906;-77
2022/04/27 07:42:59;;;;;;;;;;;14.50;99.90;;;;;;5025276;28;20360;-72
2022/04/27 07:45:25;;;;;;;;;;;14.40;99.90;;;;;;5028607;28;19929;-75
2022/04/27 07:47:51;;;;;;;;;;;14.50;99.90;;;;;;5023995;28;19905;-73
2022/04/27 07:50:17;;;;;;;;;;;14.60;99.90;;;;;;5021261;28;19929;-73
2022/04/27 07:52:43;;;;;;;;;;;14.60;99.90;;;;;;5018600;28;19916;-75
2022/04/27 07:55:14;;;;;;;;;;;14.90;99.90;;;;;;5017898;28;19960;-77
2022/04/27 07:57:41;;;;;;;;;;;15.10;99.90;;;;;;5016074;28;20380;-75
2022/04/27 08:00:11;;;;;;;;;;;15.10;99.90;;;;;;5011877;28;19906;-74
2022/04/27 08:02:38;;;;;;;;;;;15.30;99.90;;;;;;5013929;28;19998;-76
2022/04/27 08:05:04;;;;;;;;;;;15.30;99.90;;;;;;5011962;28;19906;-75
2022/04/27 08:07:39;;;;;;;;;;;15.30;99.90;;;;;;5012103;28;20280;-74
2022/04/27 08:10:09;;;;;;;;;;;15.40;99.90;;;;;;5010649;28;19920;-74
2022/04/27 08:12:35;;;;;;;;;;;15.10;99.90;;;;;;5012249;28;19999;-77
2022/04/27 08:15:01;;;;;;;;;;;15.10;99.90;;;;;;5013383;28;19906;-74
2022/04/27 08:17:27;;;;;;;;;;;15.10;99.90;;;;;;5012412;28;19914;-73
2022/04/27 08:21:13;;;;;;;;;;;15.00;99.90;;;;;;5011082;28;20275;-74
2022/04/27 08:22:38;;;;;;;;;;;15.10;99.90;;;;;;5013841;28;19908;-67
2022/04/27 08:25:03;;;;;;;;;;;15.00;99.90;;;;;;5021064;28;19916;-71
2022/04/27 08:27:29;;;;;;;;;;;15.00;99.90;;;;;;5011401;28;20243;-68
2022/04/27 08:29:54;;;;;;;;;;;15.00;99.90;;;;;;5010218;28;19913;-70
2022/04/27 08:32:20;;;;;;;;;;;15.10;99.90;;;;;;5011819;28;19944;-69
2022/04/27 08:34:48;;;;;;;;;;;15.00;99.90;;;;;;5009635;28;19909;-70
2022/04/27 08:37:14;;;;;;;;;;;14.80;99.90;;;;;;5008607;28;19920;-70
2022/04/27 08:39:39;;;;;;;;;;;14.80;99.90;;;;;;5011274;28;19910;-68
2022/04/27 08:42:05;;;;;;;;;;;14.90;99.90;;;;;;5011193;28;20425;-68
2022/04/27 08:44:31;;;;;;;;;;;14.90;99.90;;;;;;5010173;28;19954;-67
2022/04/27 08:46:57;;;;;;;;;;;14.90;99.90;;;;;;5008923;28;19909;-70
2022/04/27 08:49:22;;;;;;;;;;;15.00;99.90;;;;;;5009693;28;19941;-69
2022/04/27 08:51:48;;;;;;;;;;;15.10;99.90;;;;;;5012633;28;19944;-71
2022/04/27 08:54:15;;;;;;;;;;;15.10;99.90;;;;;;5011341;28;19971;-69
2022/04/27 08:56:40;;;;;;;;;;;15.20;99.90;;;;;;5006715;28;19932;-69
2022/04/27 08:59:08;;;;;;;;;;;15.20;99.90;;;;;;5006051;28;19909;-68
2022/04/27 09:01:34;;;;;;;;;;;15.40;99.90;;;;;;5011932;28;19913;-68
2022/04/27 09:04:11;;;;;;;;;;;15.50;99.90;;;;;;5011794;28;20353;-69
2022/04/27 09:06:38;;;;;;;;;;;15.90;99.90;;;;;;5007806;28;19917;-68
2022/04/27 09:09:04;;;;;;;;;;;15.90;99.90;;;;;;5010318;28;19909;-68
2022/04/27 09:11:32;;;;;;;;;;;15.80;99.90;;;;;;5005689;28;20278;-67
2022/04/27 09:14:02;;;;;;;;;;;15.90;99.90;;;;;;5005946;28;19913;-69
2022/04/27 09:20:46;;;;;;;;;;;15.90;99.90;;;;;;5006602;28;20300;-69
2022/04/27 09:22:06;;;;;;;;;;;16.20;99.90;;;;;;5009441;28;20269;-68
2022/04/27 09:24:48;;;;;;;;;;;16.30;99.90;;;;;;5002215;28;20169;-69
2022/04/27 09:27:16;;;;;;;;;;;16.40;99.90;;;;;;5001658;28;19918;-71
2022/04/27 09:29:42;;;;;;;;;;;16.70;99.90;;;;;;5004794;28;19909;-69
2022/04/27 09:32:14;;;;;;;;;;;16.40;99.90;;;;;;5000709;28;19917;-67
2022/04/27 09:34:47;;;;;;;;;;;16.20;99.90;;;;;;5003546;28;19948;-69
2022/04/27 09:37:16;;;;;;;;;;;16.10;99.90;;;;;;5011075;28;20242;-69
2022/04/27 09:39:43;;;;;;;;;;;16.00;99.90;;;;;;5010123;28;20091;-69
2022/04/27 09:42:10;;;;;;;;;;;15.70;99.90;;;;;;5008553;28;19913;-68
2022/04/27 09:44:36;;;;;;;;;;;15.90;99.90;;;;;;5006286;28;19913;-70
2022/04/27 09:47:03;;;;;;;;;;;15.80;99.90;;;;;;5010780;28;19906;-68
2022/04/27 09:49:29;;;;;;;;;;;15.80;99.90;;;;;;5009512;28;19913;-68
2022/04/27 09:51:56;;;;;;;;;;;15.90;99.90;;;;;;5010118;28;19920;-68
2022/04/27 09:54:25;;;;;;;;;;;16.10;99.90;;;;;;5008556;28;20009;-69
2022/04/27 09:56:58;;;;;;;;;;;16.40;99.90;;;;;;5008877;28;19913;-69
2022/04/27 09:59:31;;;;;;;;;;;16.50;99.90;;;;;;5005695;28;19909;-69
2022/04/27 10:02:20;;;;;;;;;;;16.40;99.90;;;;;;5008987;28;19988;-69
2022/04/27 10:04:45;;;;;;;;;;;16.40;99.90;;;;;;5008467;28;19909;-68
2022/04/27 10:07:13;;;;;;;;;;;16.70;99.90;;;;;;5011962;28;19912;-68
2022/04/27 10:09:39;;;;;;;;;;;16.80;99.90;;;;;;5012042;28;20395;-68
2022/04/27 10:12:06;;;;;;;;;;;17.00;99.90;;;;;;5008465;28;19950;-70
2022/04/27 10:14:32;;;;;;;;;;;17.10;99.90;;;;;;5008345;28;19917;-68
2022/04/27 10:16:57;;;;;;;;;;;17.30;99.90;;;;;;5010353;28;19910;-69
2022/04/27 10:19:24;;;;;;;;;;;17.30;99.90;;;;;;5009123;28;19909;-68
2022/04/27 10:21:56;;;;;;;;;;;17.00;99.90;;;;;;5006364;28;20199;-68
2022/04/27 10:24:34;;;;;;;;;;;17.00;99.90;;;;;;5012055;28;19913;-68
2022/04/27 10:27:18;;;;;;;;;;;17.00;99.90;;;;;;5008678;28;19906;-69
2022/04/27 10:29:58;;;;;;;;;;;17.10;99.90;;;;;;5012124;28;19910;-68
2022/04/27 10:32:42;;;;;;;;;;;17.00;99.90;;;;;;5006641;28;19921;-68
2022/04/27 10:35:14;;;;;;;;;;;17.00;99.90;;;;;;5004281;28;19913;-68
2022/04/27 10:38:02;;;;;;;;;;;17.40;99.90;;;;;;5000597;28;19961;-69
2022/04/27 10:40:29;;;;;;;;;;;17.50;99.90;;;;;;5002355;28;19988;-69
2022/04/27 10:43:02;;;;;;;;;;;17.40;99.90;;;;;;5003118;28;19917;-70
2022/04/27 10:45:28;;;;;;;;;;;17.40;99.90;;;;;;5005969;28;20389;-68
2022/04/27 10:47:53;;;;;;;;;;;17.50;99.90;;;;;;5005455;28;19979;-69
2022/04/27 10:50:20;;;;;;;;;;;17.60;99.90;;;;;;5007126;28;19916;-68
2022/04/27 10:52:51;;;;;;;;;;;17.60;99.90;;;;;;5007126;28;20084;-69
2022/04/27 10:55:35;;;;;;;;;;;17.60;99.90;;;;;;5005325;28;19916;-69
2022/04/27 10:58:11;;;;;;;;;;;17.60;99.90;;;;;;5011751;28;19921;-69
2022/04/27 11:00:57;;;;;;;;;;;17.70;99.90;;;;;;5009663;28;19905;-69
2022/04/27 11:03:22;;;;;;;;;;;17.80;99.90;;;;;;5014395;28;19991;-68
2022/04/27 11:05:49;;;;;;;;;;;17.80;99.90;;;;;;5012014;28;20004;-70
2022/04/27 11:08:35;;;;;;;;;;;17.60;99.90;;;;;;5008971;28;19964;-70
2022/04/27 11:11:07;;;;;;;;;;;17.60;99.90;;;;;;5010766;28;19971;-70
2022/04/27 11:13:34;;;;;;;;;;;17.70;99.90;;;;;;5013688;28;20061;-70
2022/04/27 11:16:10;;;;;;;;;;;17.90;99.90;;;;;;5014950;28;19980;-70
2022/04/27 11:18:49;;;;;;;;;;;18.10;99.90;;;;;;5012005;28;20000;-69
2022/04/27 11:21:15;;;;;;;;;;;18.40;99.90;;;;;;5014721;28;19909;-69
2022/04/27 11:23:41;;;;;;;;;;;18.20;99.90;;;;;;5013453;28;19996;-69
2022/04/27 11:26:06;;;;;;;;;;;18.30;99.90;;;;;;5013479;28;20252;-70
2022/04/27 11:28:32;;;;;;;;;;;18.20;99.90;;;;;;5008285;28;20377;-69
2022/04/27 11:30:58;;;;;;;;;;;18.20;99.90;;;;;;5009367;28;20715;-69
2022/04/27 11:33:24;;;;;;;;;;;18.10;99.90;;;;;;5007051;28;20420;-70
2022/04/27 11:35:50;;;;;;;;;;;18.30;99.90;;;;;;5006719;28;20000;-69
2022/04/27 11:38:19;;;;;;;;;;;18.30;99.90;;;;;;5012602;28;19922;-69
2022/04/27 11:40:44;;;;;;;;;;;18.50;99.90;;;;;;5012117;28;19909;-69
2022/04/27 11:43:10;;;;;;;;;;;18.40;99.90;;;;;;5011238;28;20412;-69
2022/04/27 11:45:35;;;;;;;;;;;18.60;99.90;;;;;;5010168;28;19971;-69
2022/04/27 11:48:03;;;;;;;;;;;18.70;99.90;;;;;;5013034;28;19905;-69
2022/04/27 11:50:30;;;;;;;;;;;18.70;99.90;;;;;;5011380;28;19952;-70
2022/04/27 11:53:00;;;;;;;;;;;18.70;99.90;;;;;;5012183;28;19905;-69
2022/04/27 11:55:25;;;;;;;;;;;18.60;99.90;;;;;;5005721;28;19948;-70
2022/04/27 11:57:51;;;;;;;;;;;18.40;99.90;;;;;;5010044;28;19968;-69
2022/04/27 12:00:21;;;;;;;;;;;18.50;99.90;;;;;;5012043;28;19905;-70
2022/04/27 12:02:47;;;;;;;;;;;18.70;99.90;;;;;;5012158;28;20016;-70
2022/04/27 12:05:13;;;;;;;;;;;18.90;99.90;;;;;;5013535;28;20372;-70
2022/04/27 12:07:39;;;;;;;;;;;19.00;99.90;;;;;;5013027;28;20289;-70
2022/04/27 12:10:06;;;;;;;;;;;19.10;99.90;;;;;;5013282;28;19909;-68
2022/04/27 12:12:33;;;;;;;;;;;19.00;99.90;;;;;;5011762;28;19906;-70
2022/04/27 12:15:04;;;;;;;;;;;19.00;99.90;;;;;;5011762;28;20354;-70
2022/04/27 12:17:46;;;;;;;;;;;19.00;99.90;;;;;;5010671;28;20297;-70
2022/04/27 12:20:24;;;;;;;;;;;19.10;99.90;;;;;;5005258;28;19916;-68
2022/04/27 12:23:00;;;;;;;;;;;19.00;99.90;;;;;;5008855;28;20065;-69
2022/04/27 12:25:33;;;;;;;;;;;19.10;99.90;;;;;;5011701;28;20397;-69
2022/04/27 12:27:59;;;;;;;;;;;19.20;99.90;;;;;;5007732;28;19910;-69
2022/04/27 12:30:25;;;;;;;;;;;19.40;99.90;;;;;;5010513;28;20144;-68
2022/04/27 12:32:51;;;;;;;;;;;19.40;99.90;;;;;;5015636;28;20396;-69
2022/04/27 12:38:10;;;;;;;;;;;19.50;99.90;;;;;;5012143;28;20293;-69
2022/04/27 12:40:36;;;;;;;;;;;19.00;99.90;;;;;;5012489;28;19913;-71
2022/04/27 12:43:04;;;;;;;;;;;19.00;99.90;;;;;;5011810;28;20440;-70
2022/04/27 12:45:31;;;;;;;;;;;19.10;99.90;;;;;;5011280;28;19947;-69
2022/04/27 12:47:56;;;;;;;;;;;19.30;99.90;;;;;;5008801;28;19909;-69
2022/04/27 12:50:22;;;;;;;;;;;19.40;99.90;;;;;;5010487;28;20361;-69
2022/04/27 12:52:49;;;;;;;;;;;19.50;99.90;;;;;;5011672;28;19948;-69
2022/04/27 12:55:15;;;;;;;;;;;19.40;99.90;;;;;;5012119;28;19905;-69
2022/04/27 12:57:56;;;;;;;;;;;19.40;99.90;;;;;;5011211;28;19913;-70
2022/04/27 13:00:22;;;;;;;;;;;19.70;99.90;;;;;;5008259;28;19910;-69
2022/04/27 13:02:48;;;;;;;;;;;19.80;99.90;;;;;;5004048;28;19917;-69
2022/04/27 13:05:14;;;;;;;;;;;19.80;99.90;;;;;;5002749;28;20067;-70
2022/04/27 13:07:42;;;;;;;;;;;19.90;99.90;;;;;;5001816;28;19910;-70
2022/04/27 13:12:53;;;;;;;;;;;19.80;99.90;;;;;;5003417;28;19940;-71
2022/04/27 13:15:18;;;;;;;;;;;19.90;99.90;;;;;;5003478;28;20005;-70
2022/04/27 13:17:46;;;;;;;;;;;20.00;99.90;;;;;;5002536;28;20011;-70
2022/04/27 13:20:12;;;;;;;;;;;20.10;99.90;;;;;;5002796;28;20312;-70
2022/04/27 13:22:38;;;;;;;;;;;20.00;99.90;;;;;;5003330;28;21581;-70
2022/04/27 13:25:05;;;;;;;;;;;20.00;99.90;;;;;;5002680;28;19936;-70
2022/04/27 13:27:31;;;;;;;;;;;19.90;99.90;;;;;;5003467;28;19996;-71
2022/04/27 13:29:56;;;;;;;;;;;20.10;99.90;;;;;;5003296;28;20028;-71
2022/04/27 13:32:23;;;;;;;;;;;20.00;99.90;;;;;;5003557;28;20012;-70
2022/04/27 13:34:49;;;;;;;;;;;20.30;99.90;;;;;;5003150;28;19914;-71
2022/04/27 13:37:15;;;;;;;;;;;20.30;99.90;;;;;;4995668;28;20329;-71
2022/04/27 13:39:40;;;;;;;;;;;20.20;99.90;;;;;;5002108;28;19909;-71
2022/04/27 13:42:06;;;;;;;;;;;20.30;99.90;;;;;;5002696;28;19917;-72
2022/04/27 13:44:33;;;;;;;;;;;20.50;99.90;;;;;;5001977;28;20358;-70
2022/04/27 13:47:05;;;;;;;;;;;20.60;99.90;;;;;;5002199;28;20053;-69
2022/04/27 13:49:33;;;;;;;;;;;20.50;99.90;;;;;;5006078;28;19952;-70
2022/04/27 13:51:59;;;;;;;;;;;20.30;99.90;;;;;;5010193;28;19941;-69
2022/04/27 13:54:26;;;;;;;;;;;20.50;99.90;;;;;;5010147;28;19952;-69
2022/04/27 13:56:52;;;;;;;;;;;20.50;99.90;;;;;;5004419;28;19917;-69
2022/04/27 13:59:17;;;;;;;;;;;20.60;99.90;;;;;;5009533;28;19913;-69
2022/04/27 14:01:44;;;;;;;;;;;20.70;99.90;;;;;;5007072;28;19956;-70
2022/04/27 14:04:10;;;;;;;;;;;21.00;99.90;;;;;;5010325;28;19940;-69
2022/04/27 14:06:36;;;;;;;;;;;20.90;99.90;;;;;;4994371;28;19975;-69
2022/04/27 14:09:29;;;;;;;;;;;21.00;99.90;;;;;;5008338;28;19924;-70
2022/04/27 14:14:43;;;;;;;;;;;20.80;99.90;;;;;;5010296;28;20015;-69
2022/04/27 14:19:53;;;;;;;;;;;20.60;99.90;;;;;;5009472;28;19912;-70
2022/04/27 14:22:19;;;;;;;;;;;20.50;99.90;;;;;;5008765;28;19909;-69
2022/04/27 14:24:45;;;;;;;;;;;20.50;99.90;;;;;;5010890;28;19964;-69
2022/04/27 14:27:11;;;;;;;;;;;20.50;99.90;;;;;;5005275;28;19968;-69
2022/04/27 14:29:37;;;;;;;;;;;20.60;99.90;;;;;;5010054;28;20380;-71
2022/04/27 14:32:03;;;;;;;;;;;20.60;99.90;;;;;;5008643;28;19914;-70
2022/04/27 14:34:30;;;;;;;;;;;20.70;99.90;;;;;;5010970;28;19921;-70
2022/04/27 14:36:59;;;;;;;;;;;20.90;99.90;;;;;;5008175;28;20059;-69
2022/04/27 14:39:25;;;;;;;;;;;20.80;99.90;;;;;;5006249;28;20330;-69
2022/04/27 14:41:51;;;;;;;;;;;20.80;99.90;;;;;;5010917;28;19905;-71
2022/04/27 14:44:17;;;;;;;;;;;20.90;99.90;;;;;;5009951;28;19905;-70